Hoo, United Kingdom
Current Conditions -  °F | °C
As of 8:50 AM on Saturday 22 Nov 2014 (Local Time) from EGMC Reporting Station
Drizzle Drizzle  
Wind Chill: 54°   Ceiling: 900
Heat Index: 54°   Visibility: 4mi
Dew Point: 50°   Wind: 5mph
Humidity: 88%   Direction: 130°SE
Pressure: 29.91"   Gusts: NA
Location:  51.42°N, 0.57°E
Report Text: EGMC 220850Z 13004KT 6000 -DZ OVC009 12/10 Q1013
Loading
Personal Weather Stations






























Interactive Weather Map New forecast layout! Learn more

10-Day Weather Forecast

Advertisements
Track Severe Weather on mobile